Airfield :
LOGIN :

Register | Disclaimer

   EN    FR    IT 

 










Legend :    VFR   Marginal VFR   IFR   Intensive IFR   Very Intensive IFR
Visi :
Ceiling :
>= 8 km
>= 3000ft
5 to 8 km
1000 to 3000 ft
1500m to 5 km
500 to 1000 ft
800 to 1500m
200 to 500 ft
< 800m
< 200 ft
Symbols :   Thunderstorms  Fog  Heavy snow  Heavy precipitations  Wind > 20 kt
SIGMETs :     Misc.  Thunderstorms  Icing  Turbulence  Mountain Waves  Volcanic Ashes






- Airport Elevation : 13 ft
- IATA code : OST


EBOS - Oostend bruges Int.

CURRENT METAR :
  • 050820Z 18004KT 140V230 9000 NSC 18/14 Q1010 NOSIG

EXPIRED METARs :
  • 050750Z 17004KT 110V220 9000 NSC 17/14 Q1010 NOSIG
  • 050720Z VRB02KT 8000 NSC 16/14 Q1010 NOSIG
  • 050650Z 17003KT 140V200 8000 NSC 16/14 Q1010 NOSIG
  • 050620Z VRB02KT 3500 BR NSC 14/14 Q1010 BECMG 6000
  • 050550Z VRB02KT 2800 BR NSC 13/12 Q1010 BECMG 4000 BR

TAF TAF EBOS
Valid from the 05 at 06:00 until the 06 at 12:00 UTC


050500Z 0506/0612 23003KT 1400 BCFG FEW025
PROB30
TEMPO 0506/0507 0500 FG
BECMG 0507/0509 8000 NSW
BECMG 0516/0518 17010KT
TEMPO 0520/0523 4500 RA SHRA
BECMG 0604/0606 23010KT
PROB30
TEMPO 0604/0609 22015G25KT 4000 SHRA BKN014CB
BECMG 0609/0611 24018G28KT



MET'MAP, your aeronautical weather chart ! - Copyright ORBIFLY December 2007 - Disclaimer

ORBIFLY MET'MAP TEAM :

Programming & Development : Alexandra Zaïnal
Concept & original design : Baudouin d'Aumeries
Assistance for programming : Marc-Olivier Méhu
Technical & hardware support : Manuel Goepfert

Contact : metmap@orbifly.com




SOURCES & CREDITS :

   NOAA